createdAt,value
2023-04-20T00:00:08.947Z,21.20
2023-04-20T00:02:56.105Z,20.00
2023-04-20T00:05:23.598Z,19.08
2023-04-20T00:07:50.681Z,19.65
2023-04-20T00:10:17.992Z,19.23
2023-04-20T00:12:45.099Z,20.30
2023-04-20T00:15:12.449Z,19.60
2023-04-20T00:17:41.688Z,20.63
2023-04-20T00:20:12.057Z,20.15
2023-04-20T00:22:39.104Z,20.48
2023-04-20T00:25:09.311Z,20.98
2023-04-20T00:27:38.828Z,20.10
2023-04-20T00:30:07.904Z,19.65
2023-04-20T00:32:34.984Z,20.63
2023-04-20T00:35:02.316Z,22.00
2023-04-20T00:37:31.805Z,20.73
2023-04-20T00:39:59.197Z,21.20
2023-04-20T00:42:26.206Z,22.67
2023-04-20T00:44:53.556Z,20.73
2023-04-20T00:47:22.809Z,22.77
2023-04-20T00:49:52.918Z,22.15
2023-04-20T00:52:21.307Z,22.63
2023-04-20T00:54:48.956Z,21.58
2023-04-20T00:57:19.883Z,21.33
2023-04-20T00:59:47.246Z,21.88
2023-04-20T01:02:14.286Z,21.15
2023-04-20T01:04:41.801Z,21.70
2023-04-20T01:07:08.871Z,21.08
2023-04-20T01:09:39.082Z,20.35
2023-04-20T01:12:07.053Z,20.60
2023-04-20T01:14:36.911Z,20.00
2023-04-20T01:17:06.376Z,19.50
2023-04-20T01:19:33.807Z,19.08
2023-04-20T01:22:00.864Z,21.63
2023-04-20T01:24:28.233Z,20.67
2023-04-20T01:26:55.294Z,20.73
2023-04-20T01:29:22.628Z,20.40
2023-04-20T01:31:51.949Z,22.00
2023-04-20T01:34:21.883Z,19.75
2023-04-20T01:36:53.678Z,18.88
2023-04-20T01:39:21.349Z,19.67
2023-04-20T01:41:48.468Z,19.67
2023-04-20T01:44:18.053Z,19.30
2023-04-20T01:46:45.137Z,18.80
2023-04-20T01:49:12.461Z,20.17
2023-04-20T01:51:44.716Z,19.88
2023-04-20T01:54:14.502Z,19.20
2023-04-20T01:56:41.541Z,18.27
2023-04-20T01:59:08.879Z,19.67
2023-04-20T02:01:35.892Z,19.75
2023-04-20T02:04:03.221Z,19.20
2023-04-20T02:06:32.749Z,18.70
2023-04-20T02:09:00.163Z,19.83
2023-04-20T02:11:28.580Z,20.05
2023-04-20T02:13:55.953Z,20.33
2023-04-20T02:16:23.532Z,20.77
2023-04-20T02:18:50.814Z,20.38
2023-04-20T02:21:18.783Z,22.05
2023-04-20T02:23:48.757Z,20.75
2023-04-20T02:26:18.011Z,19.73
2023-04-20T02:28:47.786Z,20.73
2023-04-20T02:31:14.797Z,19.60
2023-04-20T02:33:42.168Z,20.25
2023-04-20T02:36:09.563Z,20.02
2023-04-20T02:38:36.889Z,19.85
2023-04-20T02:41:03.975Z,21.13
2023-04-20T02:43:33.485Z,19.67
2023-04-20T02:46:00.508Z,20.35
2023-04-20T02:48:27.887Z,20.48
2023-04-20T02:50:57.808Z,19.42
2023-04-20T02:53:25.162Z,19.10
2023-04-20T02:55:52.154Z,19.10
2023-04-20T02:58:19.566Z,19.52
2023-04-20T03:03:24.763Z,19.88
2023-04-20T03:05:56.630Z,19.95
2023-04-20T03:08:26.073Z,19.35
2023-04-20T03:10:53.416Z,20.42
2023-04-20T03:13:20.453Z,21.80
2023-04-20T03:15:50.257Z,21.40
2023-04-20T03:18:20.400Z,20.13
2023-04-20T03:20:47.719Z,19.05
2023-04-20T03:23:14.759Z,20.02
2023-04-20T03:25:44.575Z,19.45
2023-04-20T03:28:15.346Z,17.42
2023-04-20T03:30:45.058Z,18.80
2023-04-20T03:33:12.157Z,19.40
2023-04-20T03:35:39.587Z,20.17
2023-04-20T03:38:06.652Z,20.52
2023-04-20T03:40:34.121Z,19.55
2023-04-20T03:43:03.608Z,20.17
2023-04-20T03:45:30.961Z,19.55
2023-04-20T03:47:58.135Z,19.55
2023-04-20T03:50:28.079Z,19.27
2023-04-20T03:52:55.217Z,19.50
2023-04-20T03:55:22.604Z,19.83
2023-04-20T03:57:52.243Z,19.38
2023-04-20T04:00:19.591Z,18.70
2023-04-20T04:02:49.088Z,18.73
2023-04-20T04:05:17.007Z,19.15
2023-04-20T04:07:44.267Z,21.63
2023-04-20T04:10:14.141Z,21.33
2023-04-20T04:12:41.215Z,24.23
2023-04-20T04:15:09.244Z,25.45
2023-04-20T04:17:36.366Z,27.55
2023-04-20T04:20:06.297Z,27.58
2023-04-20T04:22:33.443Z,27.45
2023-04-20T04:25:00.843Z,28.95
2023-04-20T04:27:30.215Z,29.00
2023-04-20T04:29:57.780Z,28.02
2023-04-20T04:32:25.058Z,26.48
2023-04-20T04:34:52.604Z,25.60
2023-04-20T04:37:23.846Z,25.92
2023-04-20T04:39:51.247Z,25.60
2023-04-20T04:42:18.271Z,25.40
2023-04-20T04:44:47.828Z,25.58
2023-04-20T04:47:14.884Z,26.15
2023-04-20T04:49:44.396Z,26.60
2023-04-20T04:52:11.533Z,25.77
2023-04-20T04:54:38.898Z,25.42
2023-04-20T04:57:06.067Z,26.40
2023-04-20T04:59:33.438Z,23.25
2023-04-20T05:02:00.541Z,24.58
2023-04-20T05:04:27.996Z,23.42
2023-04-20T05:06:55.068Z,23.67
2023-04-20T05:09:22.471Z,23.42
2023-04-20T05:11:49.616Z,22.73
2023-04-20T05:14:16.974Z,22.67
2023-04-20T05:16:47.096Z,21.38
2023-04-20T05:19:14.728Z,22.38
2023-04-20T05:21:44.300Z,21.55
2023-04-20T05:24:11.728Z,22.02
2023-04-20T05:26:41.229Z,23.30
2023-04-20T05:29:08.606Z,21.88
2023-04-20T05:31:35.679Z,24.63
2023-04-20T05:34:03.097Z,22.48
2023-04-20T05:36:30.546Z,22.15
2023-04-20T05:38:57.869Z,23.42
2023-04-20T05:41:25.236Z,23.95
2023-04-20T05:43:55.405Z,23.02
2023-04-20T05:46:23.035Z,22.60
2023-04-20T05:48:59.481Z,23.20
2023-04-20T05:51:26.743Z,21.42
2023-04-20T05:53:54.187Z,21.45
2023-04-20T05:56:23.533Z,20.70
2023-04-20T05:58:51.384Z,24.70
2023-04-20T06:01:18.903Z,26.38
2023-04-20T06:03:51.671Z,21.40
2023-04-20T06:06:21.333Z,21.52
2023-04-20T06:08:48.836Z,21.73
2023-04-20T06:11:18.415Z,20.50
2023-04-20T06:13:51.181Z,20.52
2023-04-20T06:16:18.279Z,19.45
2023-04-20T06:18:47.869Z,19.10
2023-04-20T06:21:15.325Z,19.98
2023-04-20T06:23:42.794Z,19.65
2023-04-20T06:26:12.258Z,19.25
2023-04-20T06:28:41.911Z,18.45
2023-04-20T06:31:15.222Z,19.27
2023-04-20T06:33:48.183Z,18.98
2023-04-20T06:36:17.754Z,18.88
2023-04-20T06:38:45.156Z,19.10
2023-04-20T06:41:14.447Z,18.20
2023-04-20T06:43:41.871Z,18.73
2023-04-20T06:46:11.904Z,19.08
2023-04-20T06:48:39.327Z,17.35
2023-04-20T06:51:06.471Z,17.98
2023-04-20T06:53:36.257Z,17.27
2023-04-20T06:56:03.338Z,20.02
2023-04-20T06:58:30.769Z,18.00
2023-04-20T07:00:57.810Z,18.38
2023-04-20T07:03:25.410Z,17.83
2023-04-20T07:05:54.953Z,16.65
2023-04-20T07:08:22.388Z,17.40
2023-04-20T07:10:49.425Z,16.65
2023-04-20T07:13:19.420Z,17.23
2023-04-20T07:15:46.693Z,17.00
2023-04-20T07:18:14.114Z,17.95
2023-04-20T07:20:41.227Z,16.95
2023-04-20T07:23:08.611Z,16.90
2023-04-20T07:25:35.615Z,17.80
2023-04-20T07:28:03.011Z,18.33
2023-04-20T07:30:30.118Z,19.15
2023-04-20T07:32:59.757Z,18.27
2023-04-20T07:35:29.335Z,18.52
2023-04-20T07:37:58.963Z,17.95
2023-04-20T07:40:26.161Z,17.55
2023-04-20T07:42:53.511Z,19.63
2023-04-20T07:45:22.892Z,18.73
2023-04-20T07:47:50.329Z,22.73
2023-04-20T07:50:17.764Z,20.25
2023-04-20T07:52:47.374Z,20.25
2023-04-20T07:55:14.555Z,20.33
2023-04-20T07:57:41.917Z,19.48
2023-04-20T08:00:09.588Z,19.33
2023-04-20T08:02:37.129Z,20.10
2023-04-20T08:05:05.120Z,19.63
2023-04-20T08:07:32.685Z,17.20
2023-04-20T08:09:59.748Z,17.73
2023-04-20T08:12:27.352Z,18.15
2023-04-20T08:14:54.420Z,17.73
2023-04-20T08:17:24.276Z,17.92
2023-04-20T08:19:51.878Z,18.48
2023-04-20T08:22:19.213Z,19.60
2023-04-20T08:24:46.233Z,18.27
2023-04-20T08:27:13.777Z,18.65
2023-04-20T08:29:43.399Z,17.70
2023-04-20T08:32:10.877Z,19.90
2023-04-20T08:34:38.697Z,20.45
2023-04-20T08:37:06.290Z,20.40
2023-04-20T08:39:35.799Z,21.52
2023-04-20T08:42:03.225Z,23.27
2023-04-20T08:44:30.412Z,24.30
2023-04-20T08:46:58.056Z,23.10
2023-04-20T08:49:28.372Z,22.75
2023-04-20T08:51:55.766Z,24.05
2023-04-20T08:54:24.315Z,22.48
2023-04-20T08:56:52.244Z,23.58
2023-04-20T08:59:21.837Z,23.10
2023-04-20T09:01:49.207Z,21.55
2023-04-20T09:04:26.964Z,21.27
2023-04-20T09:06:57.146Z,22.60
2023-04-20T09:09:25.176Z,22.02
2023-04-20T09:12:07.966Z,25.08
2023-04-20T09:14:46.061Z,22.75
2023-04-20T09:17:15.336Z,23.15
2023-04-20T09:19:44.992Z,22.75
2023-04-20T09:22:12.578Z,23.30
2023-04-20T09:24:40.721Z,23.10
2023-04-20T09:27:22.324Z,22.90
2023-04-20T09:29:59.021Z,22.42
2023-04-20T09:32:27.312Z,23.40
2023-04-20T09:34:57.118Z,21.70
2023-04-20T09:37:24.838Z,21.95
2023-04-20T09:39:53.560Z,22.48
2023-04-20T09:42:21.803Z,22.63
2023-04-20T09:44:52.244Z,21.63
2023-04-20T09:47:22.910Z,21.92
2023-04-20T09:49:50.620Z,20.75
2023-04-20T09:52:19.059Z,20.40
2023-04-20T09:54:47.667Z,19.80
2023-04-20T09:57:17.434Z,17.95
2023-04-20T09:59:46.808Z,18.17
2023-04-20T10:02:16.760Z,16.85
2023-04-20T10:04:56.920Z,17.33
2023-04-20T10:07:29.691Z,18.45
2023-04-20T10:10:12.263Z,19.33
2023-04-20T10:12:55.085Z,17.00
2023-04-20T10:15:23.345Z,17.05
2023-04-20T10:17:51.097Z,16.08
2023-04-20T10:20:23.609Z,15.25
2023-04-20T10:23:08.537Z,15.27
2023-04-20T10:25:35.617Z,15.00
2023-04-20T10:28:05.281Z,14.68
2023-04-20T10:30:37.895Z,15.68
2023-04-20T10:33:10.787Z,17.15
2023-04-20T10:35:46.884Z,17.63
2023-04-20T10:38:14.514Z,16.63
2023-04-20T10:40:41.949Z,17.30
2023-04-20T10:43:19.364Z,17.35
2023-04-20T10:45:49.154Z,16.55
2023-04-20T10:48:18.134Z,17.60
2023-04-20T10:50:45.593Z,17.05
2023-04-20T10:53:24.577Z,15.07
2023-04-20T10:56:09.856Z,17.33
2023-04-20T10:58:37.328Z,17.63
2023-04-20T11:01:05.214Z,17.63
2023-04-20T11:03:33.585Z,17.38
2023-04-20T11:06:01.596Z,18.33
2023-04-20T11:08:39.910Z,18.50
2023-04-20T11:11:24.334Z,16.38
2023-04-20T11:14:04.619Z,15.65
2023-04-20T11:16:44.309Z,17.67
2023-04-20T11:19:23.343Z,15.65
2023-04-20T11:21:50.828Z,15.98
2023-04-20T11:24:23.178Z,15.23
2023-04-20T11:26:51.666Z,15.10
2023-04-20T11:29:39.765Z,16.45
2023-04-20T11:32:09.548Z,17.75
2023-04-20T11:34:38.858Z,16.40
2023-04-20T11:37:10.769Z,15.85
2023-04-20T11:39:40.666Z,14.75
2023-04-20T11:42:07.801Z,15.00
2023-04-20T11:44:35.281Z,17.63
2023-04-20T11:47:04.669Z,17.70
2023-04-20T11:49:34.644Z,17.08
2023-04-20T11:52:04.228Z,18.85
2023-04-20T11:54:31.756Z,18.50
2023-04-20T11:56:59.063Z,19.40
2023-04-20T11:59:30.905Z,19.67
2023-04-20T12:01:57.943Z,17.95
2023-04-20T12:04:25.879Z,18.23
2023-04-20T12:06:53.175Z,17.77
2023-04-20T12:09:20.761Z,18.13
2023-04-20T12:11:47.987Z,16.48
2023-04-20T12:14:15.396Z,17.70
2023-04-20T12:16:44.987Z,16.73
2023-04-20T12:19:14.928Z,16.77
2023-04-20T12:21:42.024Z,16.80
2023-04-20T12:24:09.457Z,16.63
2023-04-20T12:26:38.663Z,16.77
2023-04-20T12:29:06.404Z,17.80
2023-04-20T12:31:33.562Z,18.02
2023-04-20T12:34:00.969Z,16.98
2023-04-20T12:36:28.149Z,19.02
2023-04-20T12:38:58.068Z,17.83
2023-04-20T12:41:27.674Z,18.30
2023-04-20T12:43:55.084Z,19.55
2023-04-20T12:46:26.779Z,19.55
2023-04-20T12:48:56.441Z,19.38
2023-04-20T12:51:25.775Z,18.95
2023-04-20T12:53:53.199Z,18.40
2023-04-20T12:56:20.238Z,19.42
2023-04-20T12:58:50.049Z,19.05
2023-04-20T13:01:17.159Z,18.95
2023-04-20T13:03:44.642Z,18.40
2023-04-20T13:06:14.282Z,18.52
2023-04-20T13:08:41.951Z,20.20
2023-04-20T13:11:11.537Z,18.63
2023-04-20T13:13:38.865Z,20.67
2023-04-20T13:16:06.186Z,20.63
2023-04-20T13:18:34.319Z,20.33
2023-04-20T13:21:01.382Z,20.20
2023-04-20T13:23:31.235Z,20.17
2023-04-20T13:25:58.324Z,21.55
2023-04-20T13:28:25.778Z,19.75
2023-04-20T13:30:53.996Z,20.00
2023-04-20T13:33:21.519Z,20.23
2023-04-20T13:35:48.900Z,20.48
2023-04-20T13:38:18.540Z,19.55
2023-04-20T13:40:48.279Z,18.70
2023-04-20T13:43:15.698Z,20.80
2023-04-20T13:45:43.315Z,19.45
2023-04-20T13:48:13.540Z,20.48
2023-04-20T13:50:40.609Z,20.10
2023-04-20T13:53:10.420Z,21.63
2023-04-20T13:55:39.687Z,19.42
2023-04-20T13:58:07.452Z,20.80
2023-04-20T14:00:34.870Z,20.55
2023-04-20T14:03:04.749Z,20.27
2023-04-20T14:05:31.920Z,19.60
2023-04-20T14:08:01.733Z,19.98
2023-04-20T14:10:29.369Z,18.60
2023-04-20T14:12:56.910Z,19.70
2023-04-20T14:15:24.025Z,18.58
2023-04-20T14:17:52.874Z,20.75
2023-04-20T14:20:20.182Z,19.73
2023-04-20T14:22:50.077Z,20.20
2023-04-20T14:25:17.255Z,18.85
2023-04-20T14:27:44.851Z,20.23
2023-04-20T14:30:12.905Z,18.95
2023-04-20T14:32:40.751Z,18.83
2023-04-20T14:35:08.353Z,20.65
2023-04-20T14:37:35.750Z,18.83
2023-04-20T14:40:02.851Z,19.88
2023-04-20T14:42:30.347Z,20.40
2023-04-20T14:44:59.020Z,19.55
2023-04-20T14:47:28.684Z,20.23
2023-04-20T14:49:55.832Z,20.10
2023-04-20T14:52:23.189Z,20.77
2023-04-20T14:54:50.259Z,22.52
2023-04-20T14:57:17.730Z,20.10
2023-04-20T14:59:44.763Z,20.92
2023-04-20T15:02:16.486Z,19.20
2023-04-20T15:04:44.038Z,20.85
2023-04-20T15:07:11.634Z,20.45
2023-04-20T15:09:38.737Z,20.77
2023-04-20T15:12:06.138Z,21.08
2023-04-20T15:14:35.709Z,19.63
2023-04-20T15:17:03.140Z,20.20
2023-04-20T15:19:30.558Z,20.42
2023-04-20T15:21:58.611Z,21.75
2023-04-20T15:24:28.226Z,19.73
2023-04-20T15:26:55.644Z,20.17
2023-04-20T15:29:22.674Z,20.83
2023-04-20T15:31:50.093Z,19.83
2023-04-20T15:34:21.881Z,19.30
2023-04-20T15:36:51.662Z,20.70
2023-04-20T15:39:21.042Z,21.10
2023-04-20T15:41:48.554Z,20.55
2023-04-20T15:44:18.445Z,21.23
2023-04-20T15:46:45.948Z,21.98
2023-04-20T15:49:13.081Z,20.27
2023-04-20T15:51:42.562Z,21.17
2023-04-20T15:54:09.711Z,20.08
2023-04-20T15:56:37.059Z,20.92
2023-04-20T15:59:06.603Z,22.30
2023-04-20T16:01:34.372Z,21.85
2023-04-20T16:04:04.166Z,21.35
2023-04-20T16:06:31.825Z,21.15
2023-04-20T16:08:58.991Z,21.08
2023-04-20T16:11:26.284Z,22.73
2023-04-20T16:13:56.232Z,22.58
2023-04-20T16:16:26.308Z,22.27
2023-04-20T16:18:57.063Z,20.73
2023-04-20T16:21:24.452Z,21.63
2023-04-20T16:23:55.860Z,22.10
2023-04-20T16:26:23.298Z,21.30
2023-04-20T16:28:50.337Z,23.17
2023-04-20T16:31:17.841Z,21.92
2023-04-20T16:33:45.383Z,24.08
2023-04-20T16:36:15.258Z,22.00
2023-04-20T16:38:45.151Z,22.38
2023-04-20T16:41:12.516Z,21.50
2023-04-20T16:43:39.541Z,22.63
2023-04-20T16:46:12.071Z,23.25
2023-04-20T16:48:39.158Z,23.27
2023-04-20T16:51:08.747Z,23.23
2023-04-20T16:53:35.898Z,23.40
2023-04-20T16:56:03.328Z,22.17
2023-04-20T16:58:30.391Z,24.27
2023-04-20T17:00:57.825Z,24.00
2023-04-20T17:03:25.167Z,23.60
2023-04-20T17:05:52.724Z,22.55
2023-04-20T17:08:21.346Z,24.17
2023-04-20T17:10:48.677Z,22.90
2023-04-20T17:13:15.767Z,23.55
2023-04-20T17:15:45.587Z,22.30
2023-04-20T17:18:12.861Z,21.58
2023-04-20T17:20:41.297Z,23.40
2023-04-20T17:23:08.402Z,24.58
2023-04-20T17:25:35.848Z,24.85
2023-04-20T17:28:03.133Z,24.60
2023-04-20T17:30:30.509Z,24.10
2023-04-20T17:32:59.832Z,23.92
2023-04-20T17:35:27.307Z,25.15
2023-04-20T17:37:56.926Z,24.55
2023-04-20T17:40:24.324Z,24.15
2023-04-20T17:42:51.445Z,26.13
2023-04-20T17:45:21.117Z,24.90
2023-04-20T17:47:48.225Z,26.13
2023-04-20T17:50:15.768Z,26.75
2023-04-20T17:52:45.291Z,29.50
2023-04-20T17:55:12.652Z,28.27
2023-04-20T17:57:39.837Z,26.20
2023-04-20T18:00:08.187Z,28.02
2023-04-20T18:02:35.963Z,50.67
2023-04-20T18:05:04.433Z,30.10
2023-04-20T18:07:31.626Z,27.10
2023-04-20T18:09:58.965Z,29.58
2023-04-20T18:12:26.023Z,33.65
2023-04-20T18:14:53.430Z,31.13
2023-04-20T18:17:20.550Z,29.95
2023-04-20T18:19:47.917Z,27.67
2023-04-20T18:22:17.383Z,28.63
2023-04-20T18:24:46.933Z,29.92
2023-04-20T18:27:13.949Z,31.38
2023-04-20T18:29:41.279Z,28.85
2023-04-20T18:32:08.366Z,31.58
2023-04-20T18:34:35.741Z,31.80
2023-04-20T18:37:03.368Z,31.25
2023-04-20T18:39:30.807Z,32.03
2023-04-20T18:42:00.076Z,33.47
2023-04-20T18:44:27.485Z,37.00
2023-04-20T18:46:54.637Z,39.30
2023-04-20T18:49:22.024Z,39.10
2023-04-20T18:51:49.253Z,37.72
2023-04-20T18:54:16.796Z,39.30
2023-04-20T18:56:44.015Z,39.25
2023-04-20T18:59:11.505Z,39.60
2023-04-20T19:01:38.625Z,40.63
2023-04-20T19:04:09.239Z,38.80
2023-04-20T19:06:37.957Z,36.38
2023-04-20T19:09:08.435Z,35.20
2023-04-20T19:11:38.108Z,35.33
2023-04-20T19:14:10.101Z,35.72
2023-04-20T19:16:37.549Z,33.63
2023-04-20T19:19:04.951Z,32.45
2023-04-20T19:21:34.399Z,30.35
2023-04-20T19:24:01.722Z,33.88
2023-04-20T19:26:28.859Z,48.30
2023-04-20T19:28:56.194Z,34.00
2023-04-20T19:31:23.263Z,32.25
2023-04-20T19:33:50.681Z,35.00
2023-04-20T19:36:18.052Z,33.25
2023-04-20T19:38:45.926Z,33.38
2023-04-20T19:41:17.917Z,35.88
2023-04-20T19:43:45.229Z,36.83
2023-04-20T19:46:12.441Z,37.53
2023-04-20T19:48:42.347Z,38.75
2023-04-20T19:51:09.450Z,38.05
2023-04-20T19:53:36.967Z,40.83
2023-04-20T19:56:06.553Z,47.75
2023-04-20T19:58:36.713Z,52.40
2023-04-20T20:01:04.637Z,65.18
2023-04-20T20:03:34.511Z,58.85
2023-04-20T20:06:04.427Z,64.82
2023-04-20T20:08:31.893Z,69.88
2023-04-20T20:10:58.997Z,62.25
2023-04-20T20:13:28.844Z,58.53
2023-04-20T20:16:00.674Z,61.38
2023-04-20T20:18:28.077Z,57.13
2023-04-20T20:20:57.364Z,61.10
2023-04-20T20:23:25.032Z,61.95
2023-04-20T20:25:54.396Z,59.83
2023-04-20T20:28:21.796Z,52.60
2023-04-20T20:30:51.334Z,56.88
2023-04-20T20:33:20.835Z,47.45
2023-04-20T20:35:50.379Z,53.53
2023-04-20T20:38:17.724Z,54.60
2023-04-20T20:40:44.791Z,56.22
2023-04-20T20:43:12.169Z,50.40
2023-04-20T20:45:41.590Z,48.10
2023-04-20T20:48:09.001Z,49.30
2023-04-20T20:50:36.255Z,49.05
2023-04-20T20:53:05.911Z,47.35
2023-04-20T20:55:35.361Z,46.45
2023-04-20T20:58:02.745Z,43.65
2023-04-20T21:00:29.912Z,47.30
2023-04-20T21:02:57.539Z,43.83
2023-04-20T21:05:24.812Z,41.13
2023-04-20T21:07:54.444Z,44.75
2023-04-20T21:10:25.951Z,43.08
2023-04-20T21:12:53.573Z,41.50
2023-04-20T21:15:20.895Z,40.25
2023-04-20T21:17:50.842Z,36.65
2023-04-20T21:20:20.211Z,38.17
2023-04-20T21:22:49.912Z,36.80
2023-04-20T21:25:19.695Z,36.55
2023-04-20T21:27:47.134Z,30.05
2023-04-20T21:30:14.715Z,31.27
2023-04-20T21:32:47.622Z,35.33
2023-04-20T21:35:14.656Z,43.30
2023-04-20T21:37:42.101Z,30.90
2023-04-20T21:40:09.707Z,41.85
2023-04-20T21:42:37.081Z,37.03
2023-04-20T21:45:04.642Z,35.63
2023-04-20T21:47:32.069Z,36.05
2023-04-20T21:50:01.340Z,36.47
2023-04-20T21:52:28.682Z,40.50
2023-04-20T21:54:55.755Z,38.33
2023-04-20T21:57:23.151Z,36.33
2023-04-20T21:59:50.284Z,37.00
2023-04-20T22:02:17.772Z,38.33
2023-04-20T22:04:45.037Z,35.30
2023-04-20T22:07:15.390Z,37.88
2023-04-20T22:09:42.423Z,36.13
2023-04-20T22:12:09.823Z,43.60
2023-04-20T22:14:36.962Z,34.28
2023-04-20T22:17:04.288Z,32.45
2023-04-20T22:19:31.386Z,35.63
2023-04-20T22:21:58.722Z,33.33
2023-04-20T22:24:28.014Z,34.63
2023-04-20T22:26:55.402Z,31.63
2023-04-20T22:29:22.425Z,30.33
2023-04-20T22:31:49.789Z,30.13
2023-04-20T22:34:16.948Z,29.13
2023-04-20T22:36:44.392Z,24.00
2023-04-20T22:39:11.582Z,22.27
2023-04-20T22:41:42.005Z,22.45
2023-04-20T22:44:09.037Z,23.10
2023-04-20T22:46:36.376Z,22.75
2023-04-20T22:49:03.407Z,24.67
2023-04-20T22:51:30.727Z,22.05
2023-04-20T22:54:00.135Z,23.25
2023-04-20T22:56:27.668Z,21.20
2023-04-20T22:58:54.849Z,20.33
2023-04-20T23:01:22.277Z,25.42
2023-04-20T23:03:49.573Z,25.73
2023-04-20T23:06:19.184Z,20.70
2023-04-20T23:08:46.242Z,16.88
2023-04-20T23:11:13.903Z,15.60
2023-04-20T23:13:40.907Z,18.30
2023-04-20T23:16:10.556Z,18.83
2023-04-20T23:18:42.334Z,19.20
2023-04-20T23:21:09.730Z,17.17
2023-04-20T23:23:36.770Z,18.80
2023-04-20T23:26:04.192Z,17.13
2023-04-20T23:28:31.208Z,17.73
2023-04-20T23:30:58.535Z,18.70
2023-04-20T23:33:25.576Z,17.02
2023-04-20T23:35:52.881Z,20.55
2023-04-20T23:38:19.927Z,20.02
2023-04-20T23:40:49.521Z,17.90
2023-04-20T23:43:16.579Z,20.13
2023-04-20T23:45:44.000Z,22.10
2023-04-20T23:48:11.041Z,19.38
2023-04-20T23:50:38.366Z,17.70
2023-04-20T23:53:05.381Z,16.50
2023-04-20T23:55:32.910Z,16.88
2023-04-20T23:58:02.383Z,18.13
